createdAt,value
2018-12-15T00:01:56.406Z,34.47
2018-12-15T00:04:24.591Z,33.57
2018-12-15T00:06:52.785Z,37.73
2018-12-15T00:09:20.927Z,40.37
2018-12-15T00:11:49.061Z,39.10
2018-12-15T00:14:17.186Z,42.00
2018-12-15T00:16:45.697Z,38.33
2018-12-15T00:19:13.803Z,36.27
2018-12-15T00:21:41.937Z,36.13
2018-12-15T00:24:10.069Z,43.73
2018-12-15T00:26:38.177Z,41.73
2018-12-15T00:29:06.325Z,40.83
2018-12-15T00:31:34.451Z,36.30
2018-12-15T00:34:02.586Z,34.33
2018-12-15T00:36:30.694Z,40.10
2018-12-15T00:38:58.850Z,40.20
2018-12-15T00:41:26.985Z,39.53
2018-12-15T00:43:55.125Z,39.37
2018-12-15T00:46:23.275Z,36.67
2018-12-15T00:48:51.437Z,38.47
2018-12-15T00:51:19.574Z,43.93
2018-12-15T00:53:47.738Z,40.10
2018-12-15T00:56:15.881Z,43.80
2018-12-15T00:58:43.992Z,40.37
2018-12-15T01:01:12.126Z,44.57
2018-12-15T01:03:40.246Z,39.50
2018-12-15T01:06:08.384Z,39.67
2018-12-15T01:08:36.523Z,38.07
2018-12-15T01:11:04.656Z,36.70
2018-12-15T01:13:32.794Z,38.17
2018-12-15T01:16:00.949Z,35.50
2018-12-15T01:18:29.109Z,39.37
2018-12-15T01:20:57.250Z,38.23
2018-12-15T01:23:25.362Z,34.53
2018-12-15T01:25:53.502Z,40.27
2018-12-15T01:28:21.634Z,38.50
2018-12-15T01:30:49.766Z,41.23
2018-12-15T01:33:17.914Z,40.30
2018-12-15T01:35:46.152Z,38.53
2018-12-15T01:38:14.260Z,41.73
2018-12-15T01:40:42.426Z,44.83
2018-12-15T01:43:10.713Z,40.17
2018-12-15T01:45:38.860Z,41.73
2018-12-15T01:48:06.974Z,43.43
2018-12-15T01:50:35.100Z,42.20
2018-12-15T01:53:03.233Z,40.63
2018-12-15T01:55:31.460Z,42.77
2018-12-15T01:57:59.566Z,37.97
2018-12-15T02:00:27.825Z,41.13
2018-12-15T02:02:55.944Z,40.77
2018-12-15T02:05:24.077Z,41.53
2018-12-15T02:07:52.229Z,43.13
2018-12-15T02:10:20.375Z,43.43
2018-12-15T02:12:48.500Z,40.77
2018-12-15T02:15:16.644Z,41.17
2018-12-15T02:17:44.804Z,41.30
2018-12-15T02:20:12.926Z,42.43
2018-12-15T02:22:41.084Z,45.50
2018-12-15T02:25:09.229Z,45.83
2018-12-15T02:27:37.392Z,44.80
2018-12-15T02:30:06.722Z,43.37
2018-12-15T02:32:34.871Z,43.53
2018-12-15T02:35:03.625Z,46.00
2018-12-15T02:37:33.750Z,48.17
2018-12-15T02:40:01.871Z,42.43
2018-12-15T02:42:30.004Z,43.90
2018-12-15T02:44:58.120Z,45.77
2018-12-15T02:47:26.259Z,45.47
2018-12-15T02:49:54.401Z,46.53
2018-12-15T02:52:22.545Z,48.07
2018-12-15T02:54:50.706Z,44.93
2018-12-15T02:57:18.909Z,42.43
2018-12-15T02:59:47.068Z,42.47
2018-12-15T03:02:15.248Z,42.70
2018-12-15T03:04:43.353Z,44.00
2018-12-15T03:07:11.581Z,45.80
2018-12-15T03:09:39.697Z,48.60
2018-12-15T03:12:07.842Z,43.83
2018-12-15T03:14:36.001Z,46.37
2018-12-15T03:17:05.149Z,46.17
2018-12-15T03:19:33.271Z,46.17
2018-12-15T03:22:01.503Z,42.63
2018-12-15T03:24:29.670Z,41.57
2018-12-15T03:26:57.805Z,46.00
2018-12-15T03:29:26.055Z,46.80
2018-12-15T03:31:54.171Z,52.07
2018-12-15T03:34:22.328Z,45.27
2018-12-15T03:36:50.448Z,46.17
2018-12-15T03:39:18.584Z,46.23
2018-12-15T03:41:46.698Z,47.10
2018-12-15T03:44:14.846Z,47.53
2018-12-15T03:46:42.989Z,44.83
2018-12-15T03:49:11.106Z,46.33
2018-12-15T03:51:39.229Z,51.97
2018-12-15T03:54:07.350Z,46.87
2018-12-15T03:56:35.531Z,47.63
2018-12-15T03:59:03.658Z,50.30
2018-12-15T04:01:31.774Z,48.03
2018-12-15T04:03:59.905Z,44.70
2018-12-15T04:06:28.060Z,49.37
2018-12-15T04:08:56.189Z,55.50
2018-12-15T04:11:24.318Z,47.90
2018-12-15T04:13:52.459Z,50.20
2018-12-15T04:16:20.568Z,48.97
2018-12-15T04:18:48.697Z,51.10
2018-12-15T04:21:16.809Z,52.03
2018-12-15T04:23:45.064Z,49.23
2018-12-15T04:26:13.169Z,47.73
2018-12-15T04:28:41.276Z,52.07
2018-12-15T04:31:09.548Z,48.50
2018-12-15T04:33:37.684Z,49.67
2018-12-15T04:36:13.945Z,51.93
2018-12-15T04:38:42.246Z,48.60
2018-12-15T04:41:10.445Z,53.50
2018-12-15T04:43:38.559Z,47.97
2018-12-15T04:46:06.690Z,53.37
2018-12-15T04:48:34.794Z,48.97
2018-12-15T04:51:02.919Z,52.33
2018-12-15T04:53:31.072Z,49.00
2018-12-15T04:55:59.191Z,51.37
2018-12-15T04:58:27.300Z,54.13
2018-12-15T05:00:55.522Z,52.00
2018-12-15T05:03:23.629Z,56.63
2018-12-15T05:05:51.744Z,50.63
2018-12-15T05:08:19.873Z,50.90
2018-12-15T05:10:48.153Z,51.00
2018-12-15T05:13:16.265Z,53.60
2018-12-15T05:15:44.373Z,51.10
2018-12-15T05:18:18.168Z,50.20
2018-12-15T05:20:42.679Z,57.60
2018-12-15T05:23:10.785Z,52.03
2018-12-15T05:25:38.955Z,51.47
2018-12-15T05:28:07.159Z,55.17
2018-12-15T05:30:35.273Z,51.80
2018-12-15T05:33:03.411Z,57.97
2018-12-15T05:35:31.528Z,52.33
2018-12-15T05:37:59.681Z,58.03
2018-12-15T05:40:27.812Z,53.00
2018-12-15T05:42:55.964Z,53.30
2018-12-15T05:45:24.055Z,54.80
2018-12-15T05:47:52.185Z,59.63
2018-12-15T05:50:20.309Z,56.03
2018-12-15T05:52:48.492Z,50.83
2018-12-15T05:55:16.617Z,55.27
2018-12-15T05:57:44.752Z,61.93
2018-12-15T06:00:13.186Z,60.70
2018-12-15T06:02:41.485Z,56.93
2018-12-15T06:05:09.999Z,55.37
2018-12-15T06:07:38.157Z,57.33
2018-12-15T06:10:06.380Z,58.37
2018-12-15T06:12:34.570Z,58.53
2018-12-15T06:15:02.784Z,60.53
2018-12-15T06:17:30.903Z,52.27
2018-12-15T06:19:59.058Z,57.27
2018-12-15T06:22:27.184Z,52.57
2018-12-15T06:24:55.302Z,60.03
2018-12-15T06:27:24.032Z,55.40
2018-12-15T06:29:52.132Z,61.70
2018-12-15T06:32:20.303Z,57.73
2018-12-15T06:34:48.538Z,55.63
2018-12-15T06:37:16.637Z,56.83
2018-12-15T06:39:44.755Z,59.27
2018-12-15T06:42:13.028Z,60.47
2018-12-15T06:44:41.377Z,59.07
2018-12-15T06:47:09.506Z,64.00
2018-12-15T06:49:37.801Z,58.63
2018-12-15T06:52:05.983Z,60.67
2018-12-15T06:54:34.093Z,70.47
2018-12-15T06:57:02.243Z,59.23
2018-12-15T06:59:30.352Z,64.80
2018-12-15T07:01:58.496Z,63.50
2018-12-15T07:04:26.644Z,62.53
2018-12-15T07:06:54.772Z,65.20
2018-12-15T07:09:24.045Z,65.37
2018-12-15T07:11:52.312Z,63.97
2018-12-15T07:14:20.540Z,58.63
2018-12-15T07:16:48.715Z,66.23
2018-12-15T07:19:16.969Z,67.17
2018-12-15T07:21:45.104Z,67.70
2018-12-15T07:24:13.242Z,62.70
2018-12-15T07:26:41.361Z,66.20
2018-12-15T07:29:09.579Z,69.43
2018-12-15T07:31:37.732Z,60.97
2018-12-15T07:34:05.873Z,67.17
2018-12-15T07:36:33.978Z,71.10
2018-12-15T07:39:02.107Z,64.20
2018-12-15T07:41:30.249Z,73.03
2018-12-15T07:43:58.407Z,63.23
2018-12-15T07:46:26.507Z,62.37
2018-12-15T07:48:54.642Z,68.37
2018-12-15T07:51:23.491Z,65.63
2018-12-15T07:53:51.592Z,69.20
2018-12-15T07:56:21.725Z,67.93
2018-12-15T07:58:49.868Z,66.23
2018-12-15T08:01:17.969Z,70.67
2018-12-15T08:03:46.067Z,71.00
2018-12-15T08:06:14.200Z,72.37
2018-12-15T08:08:42.337Z,72.63
2018-12-15T08:14:15.629Z,69.80
2018-12-15T08:16:43.775Z,68.00
2018-12-15T08:19:11.867Z,65.87
2018-12-15T08:21:39.972Z,68.57
2018-12-15T08:24:08.102Z,64.13
2018-12-15T08:26:36.199Z,76.57
2018-12-15T08:29:04.329Z,69.13
2018-12-15T08:31:32.460Z,69.87
2018-12-15T08:34:00.685Z,63.97
2018-12-15T08:36:28.793Z,64.60
2018-12-15T08:38:56.892Z,60.23
2018-12-15T08:41:25.023Z,69.40
2018-12-15T08:43:53.119Z,73.47
2018-12-15T08:46:21.245Z,61.13
2018-12-15T08:48:49.373Z,65.37
2018-12-15T08:51:17.661Z,66.27
2018-12-15T08:53:45.812Z,63.83
2018-12-15T08:56:13.940Z,68.13
2018-12-15T08:58:42.093Z,66.17
2018-12-15T09:01:10.196Z,62.93
2018-12-15T09:03:38.322Z,69.07
2018-12-15T09:06:06.430Z,62.13
2018-12-15T09:08:34.603Z,64.80
2018-12-15T09:11:02.758Z,65.13
2018-12-15T09:13:30.872Z,62.77
2018-12-15T09:15:59.012Z,53.43
2018-12-15T09:18:27.228Z,64.37
2018-12-15T09:20:55.360Z,60.53
2018-12-15T09:23:23.494Z,60.53
2018-12-15T09:25:51.624Z,58.90
2018-12-15T09:28:19.723Z,54.57
2018-12-15T09:30:47.850Z,55.17
2018-12-15T09:33:16.008Z,49.23
2018-12-15T09:35:44.172Z,52.93
2018-12-15T09:38:12.272Z,45.23
2018-12-15T09:40:40.420Z,46.53
2018-12-15T09:43:08.549Z,48.23
2018-12-15T09:45:36.661Z,43.03
2018-12-15T09:48:04.782Z,39.43
2018-12-15T09:50:32.895Z,41.10
2018-12-15T09:53:01.109Z,44.53
2018-12-15T09:55:29.203Z,41.70
2018-12-15T09:57:57.360Z,40.73
2018-12-15T10:00:25.466Z,44.07
2018-12-15T10:02:53.604Z,40.57
2018-12-15T10:05:21.708Z,40.37
2018-12-15T10:07:49.813Z,39.67
2018-12-15T10:10:18.000Z,41.17
2018-12-15T10:12:46.106Z,41.10
2018-12-15T10:15:14.209Z,39.70
2018-12-15T10:17:42.340Z,39.87
2018-12-15T10:20:10.468Z,37.60
2018-12-15T10:22:38.615Z,40.50
2018-12-15T10:25:07.335Z,38.97
2018-12-15T10:27:35.460Z,40.90
2018-12-15T10:33:11.423Z,37.47
2018-12-15T10:35:39.538Z,38.50
2018-12-15T10:38:07.688Z,33.47
2018-12-15T10:40:37.313Z,36.07
2018-12-15T10:43:05.612Z,37.97
2018-12-15T10:45:33.737Z,34.17
2018-12-15T10:48:01.920Z,38.43
2018-12-15T10:50:30.032Z,34.80
2018-12-15T10:52:58.173Z,36.30
2018-12-15T10:55:26.290Z,33.53
2018-12-15T10:57:54.715Z,32.43
2018-12-15T11:00:23.923Z,30.43
2018-12-15T11:02:52.028Z,37.43
2018-12-15T11:05:20.152Z,31.53
2018-12-15T11:07:48.286Z,34.53
2018-12-15T11:10:16.416Z,32.33
2018-12-15T11:12:44.637Z,33.50
2018-12-15T11:15:12.741Z,39.27
2018-12-15T11:17:40.853Z,39.63
2018-12-15T11:20:09.197Z,35.77
2018-12-15T11:22:37.462Z,34.63
2018-12-15T11:25:05.797Z,37.97
2018-12-15T11:27:33.905Z,38.70
2018-12-15T11:30:02.044Z,36.63
2018-12-15T11:32:30.235Z,34.97
2018-12-15T11:34:58.632Z,37.27
2018-12-15T11:37:26.821Z,38.27
2018-12-15T11:39:55.285Z,34.17
2018-12-15T11:42:23.541Z,35.03
2018-12-15T11:44:51.649Z,36.23
2018-12-15T11:47:19.781Z,33.57
2018-12-15T11:49:47.889Z,35.20
2018-12-15T11:52:16.013Z,36.37
2018-12-15T11:54:44.116Z,33.60
2018-12-15T11:57:12.245Z,31.57
2018-12-15T11:59:40.363Z,34.20
2018-12-15T12:02:08.552Z,32.90
2018-12-15T12:04:36.686Z,35.47
2018-12-15T12:07:04.788Z,33.90
2018-12-15T12:09:32.921Z,31.57
2018-12-15T12:12:01.047Z,32.77
2018-12-15T12:14:29.210Z,33.23
2018-12-15T12:16:57.405Z,35.30
2018-12-15T12:19:25.581Z,32.50
2018-12-15T12:21:53.709Z,37.23
2018-12-15T12:24:21.921Z,33.03
2018-12-15T12:26:50.101Z,34.60
2018-12-15T12:29:18.320Z,35.63
2018-12-15T12:31:46.492Z,32.73
2018-12-15T12:34:14.601Z,35.67
2018-12-15T12:36:42.889Z,35.03
2018-12-15T12:39:10.992Z,33.23
2018-12-15T12:41:39.251Z,37.20
2018-12-15T12:44:07.361Z,32.33
2018-12-15T12:46:35.466Z,38.73
2018-12-15T12:49:03.686Z,29.57
2018-12-15T12:51:31.820Z,35.70
2018-12-15T12:53:59.964Z,36.47
2018-12-15T12:56:28.090Z,32.17
2018-12-15T12:58:56.244Z,36.33
2018-12-15T13:01:24.349Z,36.53
2018-12-15T13:03:52.573Z,29.80
2018-12-15T13:06:20.681Z,31.57
2018-12-15T13:08:48.808Z,31.47
2018-12-15T13:11:16.931Z,32.47
2018-12-15T13:13:45.037Z,33.00
2018-12-15T13:16:13.398Z,34.13
2018-12-15T13:18:41.615Z,32.93
2018-12-15T13:21:09.744Z,30.57
2018-12-15T13:23:37.995Z,31.80
2018-12-15T13:26:06.152Z,33.60
2018-12-15T13:28:34.242Z,35.53
2018-12-15T13:31:02.383Z,33.47
2018-12-15T13:33:32.988Z,35.90
2018-12-15T13:36:01.396Z,30.27
2018-12-15T13:38:29.562Z,29.87
2018-12-15T13:40:57.742Z,31.00
2018-12-15T13:43:25.860Z,31.23
2018-12-15T13:45:53.965Z,32.33
2018-12-15T13:48:22.205Z,30.33
2018-12-15T13:50:50.416Z,36.77
2018-12-15T13:53:18.540Z,34.57
2018-12-15T13:55:46.672Z,31.73
2018-12-15T13:58:14.857Z,32.43
2018-12-15T14:00:42.964Z,31.07
2018-12-15T14:03:11.060Z,28.37
2018-12-15T14:05:39.226Z,29.70
2018-12-15T14:08:07.355Z,31.53
2018-12-15T14:10:35.512Z,32.20
2018-12-15T14:13:03.636Z,29.83
2018-12-15T14:15:31.791Z,33.17
2018-12-15T14:17:59.902Z,33.17
2018-12-15T14:20:28.061Z,30.63
2018-12-15T14:22:56.164Z,33.17
2018-12-15T14:25:24.289Z,31.30
2018-12-15T14:27:52.421Z,32.10
2018-12-15T14:30:20.595Z,37.57
2018-12-15T14:32:48.748Z,32.37
2018-12-15T14:35:16.836Z,31.47
2018-12-15T14:37:44.993Z,33.40
2018-12-15T14:40:13.126Z,33.47
2018-12-15T14:42:41.258Z,33.73
2018-12-15T14:45:09.454Z,35.50
2018-12-15T14:47:37.591Z,31.07
2018-12-15T14:50:06.202Z,34.03
2018-12-15T14:52:34.331Z,32.87
2018-12-15T14:55:02.465Z,35.60
2018-12-15T14:57:30.591Z,31.17
2018-12-15T14:59:58.708Z,29.37
2018-12-15T15:02:26.836Z,30.90
2018-12-15T15:04:54.941Z,32.07
2018-12-15T15:07:23.069Z,31.43
2018-12-15T15:09:51.215Z,33.40
2018-12-15T15:12:19.351Z,29.73
2018-12-15T15:14:47.480Z,32.17
2018-12-15T15:17:15.586Z,31.10
2018-12-15T15:19:43.748Z,30.83
2018-12-15T15:22:11.903Z,27.90
2018-12-15T15:24:40.018Z,30.63
2018-12-15T15:27:10.070Z,28.37
2018-12-15T15:29:38.207Z,28.23
2018-12-15T15:32:06.344Z,28.37
2018-12-15T15:34:34.477Z,31.30
2018-12-15T15:37:02.609Z,27.37
2018-12-15T15:39:30.712Z,30.03
2018-12-15T15:41:58.865Z,30.43
2018-12-15T15:44:26.977Z,30.43
2018-12-15T15:46:55.155Z,30.03
2018-12-15T15:49:23.259Z,29.97
2018-12-15T15:51:51.359Z,30.87
2018-12-15T15:54:19.512Z,30.93
2018-12-15T15:56:47.635Z,32.20
2018-12-15T15:59:16.243Z,29.63
2018-12-15T16:01:44.354Z,29.33
2018-12-15T16:04:12.471Z,31.00
2018-12-15T16:06:40.616Z,28.53
2018-12-15T16:09:08.844Z,28.23
2018-12-15T16:11:36.982Z,28.33
2018-12-15T16:14:05.165Z,27.73
2018-12-15T16:16:34.288Z,26.73
2018-12-15T16:19:02.479Z,27.87
2018-12-15T16:21:30.580Z,32.30
2018-12-15T16:23:58.737Z,25.97
2018-12-15T16:26:26.906Z,26.17
2018-12-15T16:28:55.368Z,23.20
2018-12-15T16:31:23.562Z,26.60
2018-12-15T16:33:51.768Z,30.43
2018-12-15T16:36:19.886Z,26.13
2018-12-15T16:38:48.040Z,22.63
2018-12-15T16:41:16.150Z,26.43
2018-12-15T16:43:44.308Z,25.57
2018-12-15T16:46:12.431Z,29.60
2018-12-15T16:48:40.611Z,24.57
2018-12-15T16:51:08.741Z,26.07
2018-12-15T16:53:36.873Z,26.83
2018-12-15T16:56:04.995Z,25.67
2018-12-15T16:58:33.124Z,27.43
2018-12-15T17:01:01.251Z,25.70
2018-12-15T17:03:30.587Z,27.80
2018-12-15T17:05:59.020Z,33.23
2018-12-15T17:08:27.156Z,33.77
2018-12-15T17:10:55.257Z,29.97
2018-12-15T17:13:23.490Z,29.17
2018-12-15T17:15:51.593Z,31.50
2018-12-15T17:18:19.706Z,30.60
2018-12-15T17:20:47.824Z,34.60
2018-12-15T17:23:15.945Z,32.63
2018-12-15T17:25:44.077Z,35.87
2018-12-15T17:28:12.185Z,34.10
2018-12-15T17:30:40.311Z,35.50
2018-12-15T17:33:08.408Z,34.63
2018-12-15T17:35:36.570Z,35.80
2018-12-15T17:38:04.676Z,34.17
2018-12-15T17:40:32.782Z,32.13
2018-12-15T17:43:00.914Z,36.30
2018-12-15T17:45:29.048Z,30.23
2018-12-15T17:47:57.293Z,33.03
2018-12-15T17:50:25.440Z,35.57
2018-12-15T17:52:53.576Z,35.27
2018-12-15T17:55:21.728Z,34.23
2018-12-15T17:57:49.832Z,37.53
2018-12-15T18:00:17.991Z,33.50
2018-12-15T18:02:46.112Z,31.20
2018-12-15T18:05:14.396Z,36.17
2018-12-15T18:07:42.493Z,31.40
2018-12-15T18:10:10.681Z,35.23
2018-12-15T18:12:39.115Z,31.57
2018-12-15T18:15:07.621Z,37.67
2018-12-15T18:17:35.724Z,35.77
2018-12-15T18:20:04.483Z,32.90
2018-12-15T18:22:32.584Z,31.93
2018-12-15T18:25:00.721Z,28.97
2018-12-15T18:27:28.842Z,30.87
2018-12-15T18:29:56.960Z,26.73
2018-12-15T18:32:25.135Z,27.43
2018-12-15T18:34:53.264Z,26.33
2018-12-15T18:37:21.368Z,25.97
2018-12-15T18:39:49.521Z,31.73
2018-12-15T18:42:17.656Z,24.57
2018-12-15T18:44:45.809Z,28.87
2018-12-15T18:47:13.918Z,27.67
2018-12-15T18:49:42.177Z,27.90
2018-12-15T18:52:10.305Z,26.80
2018-12-15T18:54:38.433Z,28.43
2018-12-15T18:57:07.234Z,31.03
2018-12-15T18:59:35.627Z,25.40
2018-12-15T19:02:04.036Z,25.53
2018-12-15T19:04:32.481Z,27.93
2018-12-15T19:07:00.921Z,27.40
2018-12-15T19:09:29.311Z,25.27
2018-12-15T19:11:57.820Z,26.77
2018-12-15T19:14:25.940Z,27.07
2018-12-15T19:16:54.406Z,24.73
2018-12-15T19:19:22.549Z,22.87
2018-12-15T19:21:50.663Z,28.37
2018-12-15T19:24:19.177Z,25.83
2018-12-15T19:26:47.599Z,25.53
2018-12-15T19:29:16.061Z,24.73
2018-12-15T19:31:44.221Z,25.17
2018-12-15T19:34:17.521Z,26.70
2018-12-15T19:36:42.780Z,23.67
2018-12-15T19:39:10.948Z,24.33
2018-12-15T19:41:39.052Z,37.67
2018-12-15T19:44:07.189Z,31.23
2018-12-15T19:46:35.309Z,27.87
2018-12-15T19:49:03.431Z,26.83
2018-12-15T19:51:31.561Z,23.23
2018-12-15T19:53:59.698Z,27.93
2018-12-15T19:56:27.856Z,26.37
2018-12-15T19:58:55.993Z,25.07
2018-12-15T20:01:24.097Z,30.03
2018-12-15T20:03:52.252Z,23.33
2018-12-15T20:06:20.407Z,22.17
2018-12-15T20:08:48.522Z,25.13
2018-12-15T20:11:16.660Z,22.50
2018-12-15T20:13:44.899Z,24.03
2018-12-15T20:16:13.028Z,29.13
2018-12-15T20:18:41.133Z,24.67
2018-12-15T20:21:09.268Z,25.13
2018-12-15T20:23:37.473Z,24.87
2018-12-15T20:26:05.889Z,25.03
2018-12-15T20:28:34.003Z,24.20
2018-12-15T20:31:02.108Z,24.50
2018-12-15T20:33:30.237Z,28.77
2018-12-15T20:35:58.385Z,25.63
2018-12-15T20:38:26.494Z,28.70
2018-12-15T20:40:54.611Z,23.37
2018-12-15T20:43:22.772Z,23.47
2018-12-15T20:45:50.875Z,31.30
2018-12-15T20:48:19.100Z,24.70
2018-12-15T20:50:47.216Z,23.73
2018-12-15T20:53:15.369Z,26.70
2018-12-15T20:55:43.900Z,20.60
2018-12-15T20:58:12.004Z,24.47
2018-12-15T21:00:40.157Z,24.13
2018-12-15T21:03:10.577Z,25.00
2018-12-15T21:05:38.934Z,32.53
2018-12-15T21:08:07.036Z,23.27
2018-12-15T21:10:35.188Z,24.40
2018-12-15T21:13:03.608Z,24.60
2018-12-15T21:15:34.039Z,24.60
2018-12-15T21:18:02.226Z,25.30
2018-12-15T21:20:30.420Z,23.27
2018-12-15T21:22:58.853Z,24.47
2018-12-15T21:25:26.988Z,21.80
2018-12-15T21:27:55.094Z,23.50
2018-12-15T21:30:23.364Z,23.97
2018-12-15T21:32:51.518Z,21.87
2018-12-15T21:35:19.633Z,21.37
2018-12-15T21:37:47.776Z,25.00
2018-12-15T21:40:15.886Z,26.43
2018-12-15T21:42:44.053Z,22.67
2018-12-15T21:45:12.192Z,23.43
2018-12-15T21:47:41.819Z,24.50
2018-12-15T21:50:10.649Z,27.37
2018-12-15T21:52:44.333Z,23.17
2018-12-15T21:55:12.662Z,24.87
2018-12-15T21:57:40.832Z,22.67
2018-12-15T22:00:09.504Z,25.20
2018-12-15T22:02:37.634Z,24.40
2018-12-15T22:05:06.024Z,21.27
2018-12-15T22:07:34.154Z,23.17
2018-12-15T22:10:02.485Z,26.93
2018-12-15T22:12:30.621Z,22.77
2018-12-15T22:14:58.756Z,22.97
2018-12-15T22:17:26.924Z,24.90
2018-12-15T22:19:55.052Z,24.50
2018-12-15T22:22:23.174Z,25.80
2018-12-15T22:24:51.398Z,24.07
2018-12-15T22:27:19.523Z,25.20
2018-12-15T22:29:47.652Z,23.30
2018-12-15T22:32:15.804Z,22.93
2018-12-15T22:34:43.922Z,22.70
2018-12-15T22:37:12.071Z,23.43
2018-12-15T22:39:40.188Z,23.13
2018-12-15T22:42:08.316Z,24.07
2018-12-15T22:44:36.453Z,25.70
2018-12-15T22:47:04.586Z,22.20
2018-12-15T22:49:32.724Z,23.30
2018-12-15T22:52:00.871Z,20.93
2018-12-15T22:54:28.985Z,20.03
2018-12-15T22:56:57.176Z,22.13
2018-12-15T22:59:25.360Z,25.13
2018-12-15T23:01:53.534Z,23.07
2018-12-15T23:04:21.769Z,24.17
2018-12-15T23:06:49.905Z,25.50
2018-12-15T23:09:18.012Z,24.37
2018-12-15T23:11:46.171Z,27.80
2018-12-15T23:14:14.303Z,26.33
2018-12-15T23:16:42.441Z,23.10
2018-12-15T23:19:10.620Z,25.07
2018-12-15T23:21:38.829Z,26.27
2018-12-15T23:24:06.947Z,23.43
2018-12-15T23:26:35.078Z,22.30
2018-12-15T23:29:03.273Z,26.97
2018-12-15T23:31:31.416Z,25.30
2018-12-15T23:33:59.534Z,24.03
2018-12-15T23:36:27.696Z,23.67
2018-12-15T23:38:55.815Z,29.40
2018-12-15T23:41:23.928Z,22.70
2018-12-15T23:43:52.066Z,23.13
2018-12-15T23:46:20.260Z,22.23
2018-12-15T23:48:48.784Z,26.77
2018-12-15T23:51:17.091Z,24.90
2018-12-15T23:53:45.218Z,25.77
2018-12-15T23:56:13.331Z,26.07
2018-12-15T23:58:41.498Z,24.83
